sensor_id;sensor_type;location;lat;lon;timestamp;pressure;altitude;pressure_sealevel;temperature;humidity
11124;BME280;5616;42.692;23.312;2024-03-02T00:02:13;94725.78;;;10.07;66.44
11124;BME280;5616;42.692;23.312;2024-03-02T00:04:39;94742.34;;;10.11;65.51
11124;BME280;5616;42.692;23.312;2024-03-02T00:07:06;94744.47;;;10.14;66.85
11124;BME280;5616;42.692;23.312;2024-03-02T00:09:32;94746.78;;;10.04;65.54
11124;BME280;5616;42.692;23.312;2024-03-02T00:12:01;94749.16;;;10.05;65.18
11124;BME280;5616;42.692;23.312;2024-03-02T00:14:30;94745.38;;;10.08;66.02
11124;BME280;5616;42.692;23.312;2024-03-02T00:17:04;94740.78;;;10.10;65.70
11124;BME280;5616;42.692;23.312;2024-03-02T00:19:30;94747.06;;;10.14;65.67
11124;BME280;5616;42.692;23.312;2024-03-02T00:21:55;94743.50;;;10.15;65.18
11124;BME280;5616;42.692;23.312;2024-03-02T00:24:32;94741.09;;;10.20;65.61
11124;BME280;5616;42.692;23.312;2024-03-02T00:26:59;94732.44;;;10.14;65.61
11124;BME280;5616;42.692;23.312;2024-03-02T00:29:25;94734.38;;;10.19;66.48
11124;BME280;5616;42.692;23.312;2024-03-02T00:31:50;94732.59;;;10.19;65.08
11124;BME280;5616;42.692;23.312;2024-03-02T00:34:17;94730.00;;;10.19;65.12
11124;BME280;5616;42.692;23.312;2024-03-02T00:36:43;94728.94;;;10.09;65.04
11124;BME280;5616;42.692;23.312;2024-03-02T00:39:08;94730.06;;;10.13;65.40
11124;BME280;5616;42.692;23.312;2024-03-02T00:41:33;94723.38;;;10.12;65.98
11124;BME280;5616;42.692;23.312;2024-03-02T00:46:35;94717.94;;;10.20;64.90
11124;BME280;5616;42.692;23.312;2024-03-02T00:51:36;94712.22;;;10.18;65.62
11124;BME280;5616;42.692;23.312;2024-03-02T00:54:05;94712.22;;;10.18;65.00
11124;BME280;5616;42.692;23.312;2024-03-02T00:56:32;94706.91;;;10.13;65.85
11124;BME280;5616;42.692;23.312;2024-03-02T00:58:58;94712.22;;;10.18;65.20
11124;BME280;5616;42.692;23.312;2024-03-02T01:01:23;94713.38;;;10.22;65.50
11124;BME280;5616;42.692;23.312;2024-03-02T01:03:49;94717.72;;;10.21;64.89
11124;BME280;5616;42.692;23.312;2024-03-02T01:06:15;94716.63;;;10.29;65.00
11124;BME280;5616;42.692;23.312;2024-03-02T01:08:41;94719.31;;;10.34;65.10
11124;BME280;5616;42.692;23.312;2024-03-02T01:11:07;94716.16;;;10.32;65.17
11124;BME280;5616;42.692;23.312;2024-03-02T01:13:32;94716.06;;;10.27;64.94
11124;BME280;5616;42.692;23.312;2024-03-02T01:15:58;94721.09;;;10.33;64.10
11124;BME280;5616;42.692;23.312;2024-03-02T01:18:24;94712.28;;;10.41;65.69
11124;BME280;5616;42.692;23.312;2024-03-02T01:20:50;94704.13;;;10.44;64.75
11124;BME280;5616;42.692;23.312;2024-03-02T01:23:20;94695.19;;;10.47;64.69
11124;BME280;5616;42.692;23.312;2024-03-02T01:25:49;94697.09;;;10.51;63.83
11124;BME280;5616;42.692;23.312;2024-03-02T01:28:16;94693.53;;;10.52;63.57
11124;BME280;5616;42.692;23.312;2024-03-02T01:30:41;94691.28;;;10.44;64.13
11124;BME280;5616;42.692;23.312;2024-03-02T01:33:07;94691.28;;;10.44;64.41
11124;BME280;5616;42.692;23.312;2024-03-02T01:35:33;94688.03;;;10.37;64.58
11124;BME280;5616;42.692;23.312;2024-03-02T01:38:00;94689.69;;;10.43;64.42
11124;BME280;5616;42.692;23.312;2024-03-02T01:40:26;94688.13;;;10.42;64.18
11124;BME280;5616;42.692;23.312;2024-03-02T01:42:52;94686.91;;;10.45;64.58
11124;BME280;5616;42.692;23.312;2024-03-02T01:45:19;94689.16;;;10.41;64.82
11124;BME280;5616;42.692;23.312;2024-03-02T01:47:45;94685.00;;;10.40;65.18
11124;BME280;5616;42.692;23.312;2024-03-02T01:50:11;94681.44;;;10.41;64.54
11124;BME280;5616;42.692;23.312;2024-03-02T01:52:37;94679.66;;;10.42;65.52
11124;BME280;5616;42.692;23.312;2024-03-02T01:55:03;94674.50;;;10.30;65.45
11124;BME280;5616;42.692;23.312;2024-03-02T01:57:29;94680.06;;;10.39;66.05
11124;BME280;5616;42.692;23.312;2024-03-02T01:59:55;94672.81;;;10.36;66.43
11124;BME280;5616;42.692;23.312;2024-03-02T02:02:21;94679.97;;;10.33;66.46
11124;BME280;5616;42.692;23.312;2024-03-02T02:04:46;94680.41;;;10.30;65.75
11124;BME280;5616;42.692;23.312;2024-03-02T02:07:12;94676.03;;;10.31;66.09
11124;BME280;5616;42.692;23.312;2024-03-02T02:09:41;94682.31;;;10.35;65.48
11124;BME280;5616;42.692;23.312;2024-03-02T02:12:07;94675.94;;;10.26;66.02
11124;BME280;5616;42.692;23.312;2024-03-02T02:14:33;94672.78;;;10.24;67.53
11124;BME280;5616;42.692;23.312;2024-03-02T02:16:59;94679.72;;;10.23;66.40
11124;BME280;5616;42.692;23.312;2024-03-02T02:19:25;94679.25;;;10.15;66.97
11124;BME280;5616;42.692;23.312;2024-03-02T02:21:50;94670.03;;;10.07;66.44
11124;BME280;5616;42.692;23.312;2024-03-02T02:24:15;94677.22;;;10.05;67.96
11124;BME280;5616;42.692;23.312;2024-03-02T02:26:41;94675.03;;;10.02;68.67
11124;BME280;5616;42.692;23.312;2024-03-02T02:29:06;94672.41;;;10.09;68.63
11124;BME280;5616;42.692;23.312;2024-03-02T02:31:39;94674.91;;;10.15;68.28
11124;BME280;5616;42.692;23.312;2024-03-02T02:34:05;94688.94;;;10.13;67.66
11124;BME280;5616;42.692;23.312;2024-03-02T02:36:32;94678.94;;;10.23;67.88
11124;BME280;5616;42.692;23.312;2024-03-02T02:39:00;94679.63;;;10.30;67.44
11124;BME280;5616;42.692;23.312;2024-03-02T02:41:28;94678.06;;;10.29;67.12
11124;BME280;5616;42.692;23.312;2024-03-02T02:43:54;94683.97;;;10.29;67.64
11124;BME280;5616;42.692;23.312;2024-03-02T02:46:20;94677.06;;;10.30;66.86
11124;BME280;5616;42.692;23.312;2024-03-02T02:48:45;94677.16;;;10.35;66.98
11124;BME280;5616;42.692;23.312;2024-03-02T02:51:11;94679.31;;;10.38;67.36
11124;BME280;5616;42.692;23.312;2024-03-02T02:53:36;94688.56;;;10.39;67.27
11124;BME280;5616;42.692;23.312;2024-03-02T02:56:08;94685.78;;;10.41;67.38
11124;BME280;5616;42.692;23.312;2024-03-02T02:58:34;94684.34;;;10.45;67.18
11124;BME280;5616;42.692;23.312;2024-03-02T03:01:00;94692.84;;;10.45;67.63
11124;BME280;5616;42.692;23.312;2024-03-02T03:03:26;94684.69;;;10.48;67.04
11124;BME280;5616;42.692;23.312;2024-03-02T03:05:51;94689.81;;;10.48;66.95
11124;BME280;5616;42.692;23.312;2024-03-02T03:08:17;94690.38;;;10.50;66.81
11124;BME280;5616;42.692;23.312;2024-03-02T03:10:42;94692.94;;;10.50;66.67
11124;BME280;5616;42.692;23.312;2024-03-02T03:13:08;94692.41;;;10.48;67.33
11124;BME280;5616;42.692;23.312;2024-03-02T03:15:37;94687.25;;;10.48;67.77
11124;BME280;5616;42.692;23.312;2024-03-02T03:18:04;94684.56;;;10.43;67.43
11124;BME280;5616;42.692;23.312;2024-03-02T03:20:30;94681.53;;;10.35;67.65
11124;BME280;5616;42.692;23.312;2024-03-02T03:22:56;94682.19;;;10.30;67.60
11124;BME280;5616;42.692;23.312;2024-03-02T03:25:22;94679.63;;;10.30;68.13
11124;BME280;5616;42.692;23.312;2024-03-02T03:27:48;94688.09;;;10.19;69.26
11124;BME280;5616;42.692;23.312;2024-03-02T03:30:13;94683.41;;;10.16;68.95
11124;BME280;5616;42.692;23.312;2024-03-02T03:32:39;94684.94;;;10.17;69.76
11124;BME280;5616;42.692;23.312;2024-03-02T03:35:06;94688.09;;;10.19;69.95
11124;BME280;5616;42.692;23.312;2024-03-02T03:37:31;94683.94;;;10.18;70.02
11124;BME280;5616;42.692;23.312;2024-03-02T03:40:04;94689.88;;;10.18;69.50
11124;BME280;5616;42.692;23.312;2024-03-02T03:42:36;94688.94;;;10.13;69.06
11124;BME280;5616;42.692;23.312;2024-03-02T03:45:03;94692.63;;;10.05;69.61
11124;BME280;5616;42.692;23.312;2024-03-02T03:47:29;94684.00;;;10.00;69.34
11124;BME280;5616;42.692;23.312;2024-03-02T03:49:56;94693.72;;;9.98;70.71
11124;BME280;5616;42.692;23.312;2024-03-02T03:52:21;94687.66;;;9.92;70.83
11124;BME280;5616;42.692;23.312;2024-03-02T03:54:46;94682.59;;;9.85;70.78
11124;BME280;5616;42.692;23.312;2024-03-02T03:57:12;94686.97;;;9.85;71.11
11124;BME280;5616;42.692;23.312;2024-03-02T03:59:37;94687.66;;;9.92;71.52
11124;BME280;5616;42.692;23.312;2024-03-02T04:02:03;94681.41;;;10.00;71.55
11124;BME280;5616;42.692;23.312;2024-03-02T04:04:29;94687.47;;;10.05;70.99
11124;BME280;5616;42.692;23.312;2024-03-02T04:06:54;94679.09;;;10.10;70.68
11124;BME280;5616;42.692;23.312;2024-03-02T04:09:20;94684.69;;;10.07;70.96
11124;BME280;5616;42.692;23.312;2024-03-02T04:11:45;94682.75;;;10.02;70.34
11124;BME280;5616;42.692;23.312;2024-03-02T04:14:11;94685.56;;;10.01;71.31
11124;BME280;5616;42.692;23.312;2024-03-02T04:16:37;94688.69;;;10.03;71.29
11124;BME280;5616;42.692;23.312;2024-03-02T04:19:03;94686.13;;;10.03;70.38
11124;BME280;5616;42.692;23.312;2024-03-02T04:21:29;94688.13;;;10.01;71.84
11124;BME280;5616;42.692;23.312;2024-03-02T04:23:54;94685.56;;;10.01;71.54
11124;BME280;5616;42.692;23.312;2024-03-02T04:26:24;94679.28;;;9.97;71.61
11124;BME280;5616;42.692;23.312;2024-03-02T04:28:51;94692.59;;;9.94;71.81
11124;BME280;5616;42.692;23.312;2024-03-02T04:31:16;94685.88;;;9.93;72.00
11124;BME280;5616;42.692;23.312;2024-03-02T04:33:42;94689.88;;;9.89;71.99
11124;BME280;5616;42.692;23.312;2024-03-02T04:36:08;94690.31;;;9.85;71.73
11124;BME280;5616;42.692;23.312;2024-03-02T04:38:36;94693.31;;;9.82;71.79
11124;BME280;5616;42.692;23.312;2024-03-02T04:41:02;94698.03;;;9.85;71.73
11124;BME280;5616;42.692;23.312;2024-03-02T04:43:27;94687.31;;;9.89;71.60
11124;BME280;5616;42.692;23.312;2024-03-02T04:45:53;94692.00;;;9.92;71.21
11124;BME280;5616;42.692;23.312;2024-03-02T04:48:18;94703.41;;;9.96;71.77
11124;BME280;5616;42.692;23.312;2024-03-02T04:50:44;94699.41;;;10.00;71.95
11124;BME280;5616;42.692;23.312;2024-03-02T04:53:10;94698.16;;;9.91;72.41
11124;BME280;5616;42.692;23.312;2024-03-02T04:55:35;94694.00;;;9.90;73.35
11124;BME280;5616;42.692;23.312;2024-03-02T04:58:07;94700.38;;;9.87;73.06
11124;BME280;5616;42.692;23.312;2024-03-02T05:00:33;94695.88;;;9.82;73.13
11124;BME280;5616;42.692;23.312;2024-03-02T05:02:58;94706.03;;;9.77;73.70
11124;BME280;5616;42.692;23.312;2024-03-02T05:05:24;94707.00;;;9.76;74.00
11124;BME280;5616;42.692;23.312;2024-03-02T05:07:49;94703.00;;;9.80;73.89
11124;BME280;5616;42.692;23.312;2024-03-02T05:10:15;94700.44;;;9.80;74.32
11124;BME280;5616;42.692;23.312;2024-03-02T05:12:41;94713.00;;;9.89;73.37
11124;BME280;5616;42.692;23.312;2024-03-02T05:15:10;94706.16;;;9.82;73.38
11124;BME280;5616;42.692;23.312;2024-03-02T05:17:37;94709.38;;;9.78;73.35
11124;BME280;5616;42.692;23.312;2024-03-02T05:20:06;94719.84;;;9.76;73.56
11124;BME280;5616;42.692;23.312;2024-03-02T05:22:35;94723.59;;;9.62;74.05
11124;BME280;5616;42.692;23.312;2024-03-02T05:25:02;94725.72;;;9.65;74.64
11124;BME280;5616;42.692;23.312;2024-03-02T05:27:28;94721.19;;;9.67;74.75
11124;BME280;5616;42.692;23.312;2024-03-02T05:29:54;94723.09;;;9.72;74.26
11124;BME280;5616;42.692;23.312;2024-03-02T05:32:19;94725.44;;;9.73;74.21
11124;BME280;5616;42.692;23.312;2024-03-02T05:34:45;94731.72;;;9.77;74.62
11124;BME280;5616;42.692;23.312;2024-03-02T05:37:11;94730.94;;;9.77;74.70
11124;BME280;5616;42.692;23.312;2024-03-02T05:39:36;94730.81;;;9.72;74.62
11124;BME280;5616;42.692;23.312;2024-03-02T05:42:02;94734.91;;;9.73;75.10
11124;BME280;5616;42.692;23.312;2024-03-02T05:44:28;94745.13;;;9.79;74.94
11124;BME280;5616;42.692;23.312;2024-03-02T05:46:54;94740.75;;;9.80;74.12
11124;BME280;5616;42.692;23.312;2024-03-02T05:49:20;94744.81;;;9.88;75.12
11124;BME280;5616;42.692;23.312;2024-03-02T05:51:45;94741.06;;;9.90;74.37
11124;BME280;5616;42.692;23.312;2024-03-02T05:54:11;94746.41;;;9.89;74.53
11124;BME280;5616;42.692;23.312;2024-03-02T05:56:36;94747.81;;;9.84;74.78
11124;BME280;5616;42.692;23.312;2024-03-02T05:59:02;94750.69;;;9.76;75.12
11124;BME280;5616;42.692;23.312;2024-03-02T06:01:42;94744.84;;;9.69;75.17
11124;BME280;5616;42.692;23.312;2024-03-02T06:04:08;94749.44;;;9.67;75.38
11124;BME280;5616;42.692;23.312;2024-03-02T06:06:34;94748.28;;;9.63;76.45
11124;BME280;5616;42.692;23.312;2024-03-02T06:09:03;94746.16;;;9.60;75.85
11124;BME280;5616;42.692;23.312;2024-03-02T06:11:39;94748.84;;;9.65;76.51
11124;BME280;5616;42.692;23.312;2024-03-02T06:14:06;94741.72;;;9.67;75.86
11124;BME280;5616;42.692;23.312;2024-03-02T06:16:32;94754.72;;;9.72;76.10
11124;BME280;5616;42.692;23.312;2024-03-02T06:18:58;94752.84;;;9.79;75.99
11124;BME280;5616;42.692;23.312;2024-03-02T06:21:24;94748.25;;;9.81;76.42
11124;BME280;5616;42.692;23.312;2024-03-02T06:23:50;94754.09;;;9.89;75.76
11124;BME280;5616;42.692;23.312;2024-03-02T06:26:16;94748.53;;;9.92;75.31
11124;BME280;5616;42.692;23.312;2024-03-02T06:28:41;94754.53;;;9.85;76.05
11124;BME280;5616;42.692;23.312;2024-03-02T06:31:08;94752.97;;;9.84;75.57
11124;BME280;5616;42.692;23.312;2024-03-02T06:33:33;94756.41;;;9.78;75.90
11124;BME280;5616;42.692;23.312;2024-03-02T06:35:59;94758.34;;;9.65;75.72
11124;BME280;5616;42.692;23.312;2024-03-02T06:38:24;94761.56;;;9.60;76.28
11124;BME280;5616;42.692;23.312;2024-03-02T06:40:50;94750.56;;;9.53;75.91
11124;BME280;5616;42.692;23.312;2024-03-02T06:43:15;94762.44;;;9.54;75.43
11124;BME280;5616;42.692;23.312;2024-03-02T06:45:41;94764.34;;;9.59;75.81
11124;BME280;5616;42.692;23.312;2024-03-02T06:48:06;94760.56;;;9.61;76.29
11124;BME280;5616;42.692;23.312;2024-03-02T06:50:32;94759.13;;;9.65;76.24
11124;BME280;5616;42.692;23.312;2024-03-02T06:52:57;94761.84;;;9.70;75.46
11124;BME280;5616;42.692;23.312;2024-03-02T06:55:23;94766.53;;;9.73;75.53
11124;BME280;5616;42.692;23.312;2024-03-02T06:57:50;94765.38;;;9.69;74.58
11124;BME280;5616;42.692;23.312;2024-03-02T07:00:16;94770.13;;;9.72;75.38
11124;BME280;5616;42.692;23.312;2024-03-02T07:02:43;94769.69;;;9.75;75.48
11124;BME280;5616;42.692;23.312;2024-03-02T07:05:09;94772.47;;;9.74;74.86
11124;BME280;5616;42.692;23.312;2024-03-02T07:07:35;94774.38;;;9.78;74.31
11124;BME280;5616;42.692;23.312;2024-03-02T07:10:03;94770.25;;;9.77;73.90
11124;BME280;5616;42.692;23.312;2024-03-02T07:12:28;94772.97;;;9.82;74.50
11124;BME280;5616;42.692;23.312;2024-03-02T07:14:54;94774.94;;;9.80;73.97
11124;BME280;5616;42.692;23.312;2024-03-02T07:17:36;94771.59;;;9.80;75.06
11124;BME280;5616;42.692;23.312;2024-03-02T07:20:02;94783.53;;;9.74;75.20
11124;BME280;5616;42.692;23.312;2024-03-02T07:22:29;94776.53;;;9.63;74.63
11124;BME280;5616;42.692;23.312;2024-03-02T07:24:55;94781.94;;;9.55;74.01
11124;BME280;5616;42.692;23.312;2024-03-02T07:27:20;94780.53;;;9.59;74.72
11124;BME280;5616;42.692;23.312;2024-03-02T07:29:46;94782.66;;;9.62;74.96
11124;BME280;5616;42.692;23.312;2024-03-02T07:32:11;94789.94;;;9.65;75.22
11124;BME280;5616;42.692;23.312;2024-03-02T07:34:37;94780.59;;;9.71;75.05
11124;BME280;5616;42.692;23.312;2024-03-02T07:37:03;94792.66;;;9.70;74.83
11124;BME280;5616;42.692;23.312;2024-03-02T07:39:29;94791.50;;;9.66;74.62
11124;BME280;5616;42.692;23.312;2024-03-02T07:41:55;94792.66;;;9.70;74.48
11124;BME280;5616;42.692;23.312;2024-03-02T07:44:20;94800.94;;;9.72;75.12
11124;BME280;5616;42.692;23.312;2024-03-02T07:46:46;94795.06;;;9.65;74.92
11124;BME280;5616;42.692;23.312;2024-03-02T07:49:13;94790.72;;;9.66;76.29
11124;BME280;5616;42.692;23.312;2024-03-02T07:51:39;94797.22;;;9.68;76.62
11124;BME280;5616;42.692;23.312;2024-03-02T07:54:05;94797.78;;;9.70;75.59
11124;BME280;5616;42.692;23.312;2024-03-02T07:56:30;94792.66;;;9.70;76.52
11124;BME280;5616;42.692;23.312;2024-03-02T07:58:56;94797.09;;;9.63;75.19
11124;BME280;5616;42.692;23.312;2024-03-02T08:01:27;94803.38;;;9.67;75.02
11124;BME280;5616;42.692;23.312;2024-03-02T08:03:52;94801.06;;;9.59;75.34
11124;BME280;5616;42.692;23.312;2024-03-02T08:06:18;94807.06;;;9.53;75.60
11124;BME280;5616;42.692;23.312;2024-03-02T08:08:46;94805.66;;;9.57;74.32
11124;BME280;5616;42.692;23.312;2024-03-02T08:11:12;94810.78;;;9.57;75.28
11124;BME280;5616;42.692;23.312;2024-03-02T08:13:38;94801.94;;;9.53;77.31
11124;BME280;5616;42.692;23.312;2024-03-02T08:16:03;94803.44;;;9.61;76.75
11124;BME280;5616;42.692;23.312;2024-03-02T08:18:32;94805.78;;;9.62;77.94
11124;BME280;5616;42.692;23.312;2024-03-02T08:20:58;94806.91;;;9.66;77.37
11124;BME280;5616;42.692;23.312;2024-03-02T08:23:23;94801.34;;;9.69;77.15
11124;BME280;5616;42.692;23.312;2024-03-02T08:25:49;94805.28;;;9.72;76.52
11124;BME280;5616;42.692;23.312;2024-03-02T08:28:14;94811.56;;;9.76;75.28
11124;BME280;5616;42.692;23.312;2024-03-02T08:30:40;94808.34;;;9.80;75.89
11124;BME280;5616;42.692;23.312;2024-03-02T08:33:05;94807.28;;;9.88;75.60
11124;BME280;5616;42.692;23.312;2024-03-02T08:35:31;94801.06;;;9.96;76.64
11124;BME280;5616;42.692;23.312;2024-03-02T08:38:01;94801.06;;;9.96;75.15
11124;BME280;5616;42.692;23.312;2024-03-02T08:40:27;94806.09;;;10.02;74.65
11124;BME280;5616;42.692;23.312;2024-03-02T08:42:52;94806.34;;;10.01;73.89
11124;BME280;5616;42.692;23.312;2024-03-02T08:45:18;94800.75;;;10.04;73.80
11124;BME280;5616;42.692;23.312;2024-03-02T08:47:46;94805.03;;;10.10;74.88
11124;BME280;5616;42.692;23.312;2024-03-02T08:50:11;94804.03;;;10.11;73.42
11124;BME280;5616;42.692;23.312;2024-03-02T08:52:37;94808.72;;;10.14;74.19
11124;BME280;5616;42.692;23.312;2024-03-02T08:55:02;94801.84;;;10.14;74.89
11124;BME280;5616;42.692;23.312;2024-03-02T08:57:28;94806.34;;;10.19;73.70
11124;BME280;5616;42.692;23.312;2024-03-02T08:59:53;94806.16;;;10.32;73.80
11124;BME280;5616;42.692;23.312;2024-03-02T09:02:19;94803.44;;;10.45;73.45
11124;BME280;5616;42.692;23.312;2024-03-02T09:04:44;94804.97;;;10.46;73.31
11124;BME280;5616;42.692;23.312;2024-03-02T09:07:10;94812.97;;;10.56;71.67
11124;BME280;5616;42.692;23.312;2024-03-02T09:09:35;94800.22;;;10.61;71.39
11124;BME280;5616;42.692;23.312;2024-03-02T09:12:01;94811.97;;;10.69;71.21
11124;BME280;5616;42.692;23.312;2024-03-02T09:14:26;94805.19;;;10.74;71.23
11124;BME280;5616;42.692;23.312;2024-03-02T09:16:52;94811.00;;;10.81;72.71
11124;BME280;5616;42.692;23.312;2024-03-02T09:19:17;94816.84;;;10.89;70.40
11124;BME280;5616;42.692;23.312;2024-03-02T09:21:44;94814.38;;;10.94;71.26
11124;BME280;5616;42.692;23.312;2024-03-02T09:24:09;94811.59;;;10.95;71.11
11124;BME280;5616;42.692;23.312;2024-03-02T09:26:35;94818.06;;;10.98;70.62
11124;BME280;5616;42.692;23.312;2024-03-02T09:29:01;94820.13;;;11.07;70.49
11124;BME280;5616;42.692;23.312;2024-03-02T09:31:26;94824.56;;;11.12;70.99
11124;BME280;5616;42.692;23.312;2024-03-02T09:33:51;94824.03;;;11.10;71.78
11124;BME280;5616;42.692;23.312;2024-03-02T09:36:22;94821.53;;;11.15;69.96
11124;BME280;5616;42.692;23.312;2024-03-02T09:38:48;94823.78;;;11.11;70.25
11124;BME280;5616;42.692;23.312;2024-03-02T09:41:14;94825.69;;;10.93;71.07
11124;BME280;5616;42.692;23.312;2024-03-02T09:43:40;94825.69;;;11.04;71.05
11124;BME280;5616;42.692;23.312;2024-03-02T09:46:11;94831.28;;;11.13;71.52
11124;BME280;5616;42.692;23.312;2024-03-02T09:48:37;94823.13;;;11.16;70.49
11124;BME280;5616;42.692;23.312;2024-03-02T09:51:04;94830.84;;;11.16;68.45
11124;BME280;5616;42.692;23.312;2024-03-02T09:53:31;94819.56;;;11.17;67.26
11124;BME280;5616;42.692;23.312;2024-03-02T09:55:59;94820.78;;;11.14;68.25
11124;BME280;5616;42.692;23.312;2024-03-02T09:58:25;94832.88;;;11.14;69.94
11124;BME280;5616;42.692;23.312;2024-03-02T10:00:50;94827.16;;;11.12;71.20
11124;BME280;5616;42.692;23.312;2024-03-02T10:03:18;94826.16;;;11.13;71.05
11124;BME280;5616;42.692;23.312;2024-03-02T10:05:43;94820.88;;;11.08;70.05
11124;BME280;5616;42.692;23.312;2024-03-02T10:08:09;94823.44;;;11.08;71.63
11124;BME280;5616;42.692;23.312;2024-03-02T10:10:36;94829.16;;;11.10;70.68
11124;BME280;5616;42.692;23.312;2024-03-02T10:13:09;94820.13;;;11.07;70.44
11124;BME280;5616;42.692;23.312;2024-03-02T10:15:35;94818.75;;;11.05;69.99
11124;BME280;5616;42.692;23.312;2024-03-02T10:18:03;94823.34;;;11.03;70.01
11124;BME280;5616;42.692;23.312;2024-03-02T10:20:29;94817.63;;;11.01;71.16
11124;BME280;5616;42.692;23.312;2024-03-02T10:22:55;94827.81;;;10.96;71.73
11124;BME280;5616;42.692;23.312;2024-03-02T10:25:34;94811.91;;;10.99;72.02
11124;BME280;5616;42.692;23.312;2024-03-02T10:28:00;94823.78;;;11.00;70.24
11124;BME280;5616;42.692;23.312;2024-03-02T10:30:29;94818.72;;;10.93;71.92
11124;BME280;5616;42.692;23.312;2024-03-02T10:32:54;94819.28;;;10.83;72.25
11124;BME280;5616;42.692;23.312;2024-03-02T10:35:22;94821.41;;;10.87;71.28
11124;BME280;5616;42.692;23.312;2024-03-02T10:37:49;94823.53;;;10.90;71.64
11124;BME280;5616;42.692;23.312;2024-03-02T10:40:14;94817.97;;;10.93;71.14
11124;BME280;5616;42.692;23.312;2024-03-02T10:42:41;94823.53;;;10.90;73.09
11124;BME280;5616;42.692;23.312;2024-03-02T10:45:12;94816.84;;;10.89;71.60
11124;BME280;5616;42.692;23.312;2024-03-02T10:47:38;94811.34;;;10.85;72.63
11124;BME280;5616;42.692;23.312;2024-03-02T10:50:07;94813.34;;;10.83;72.89
11124;BME280;5616;42.692;23.312;2024-03-02T10:52:39;94808.97;;;10.83;73.25
11124;BME280;5616;42.692;23.312;2024-03-02T10:55:09;94802.41;;;10.88;73.18
11124;BME280;5616;42.692;23.312;2024-03-02T10:58:01;94809.13;;;10.89;72.22
11124;BME280;5616;42.692;23.312;2024-03-02T11:00:33;94803.06;;;10.95;72.49
11124;BME280;5616;42.692;23.312;2024-03-02T11:03:06;94802.41;;;10.99;72.32
11124;BME280;5616;42.692;23.312;2024-03-02T11:05:36;94806.78;;;10.99;71.80
11124;BME280;5616;42.692;23.312;2024-03-02T11:08:07;94802.88;;;10.96;71.61
11124;BME280;5616;42.692;23.312;2024-03-02T11:10:56;94803.19;;;11.00;72.70
11124;BME280;5616;42.692;23.312;2024-03-02T11:13:27;94804.06;;;10.94;73.04
11124;BME280;5616;42.692;23.312;2024-03-02T11:15:55;94800.94;;;10.92;72.28
11124;BME280;5616;42.692;23.312;2024-03-02T11:18:25;94796.94;;;10.96;72.03
11124;BME280;5616;42.692;23.312;2024-03-02T11:20:51;94799.59;;;11.01;72.02
11124;BME280;5616;42.692;23.312;2024-03-02T11:23:17;94802.31;;;11.06;72.99
11124;BME280;5616;42.692;23.312;2024-03-02T11:25:42;94798.81;;;11.12;71.80
11124;BME280;5616;42.692;23.312;2024-03-02T11:28:08;94800.72;;;11.05;69.78
11124;BME280;5616;42.692;23.312;2024-03-02T11:33:09;94792.47;;;11.03;70.58
11124;BME280;5616;42.692;23.312;2024-03-02T11:35:41;94796.16;;;11.07;71.67
11124;BME280;5616;42.692;23.312;2024-03-02T11:38:09;94794.25;;;11.14;71.32
11124;BME280;5616;42.692;23.312;2024-03-02T11:40:34;94791.78;;;11.19;71.08
11124;BME280;5616;42.692;23.312;2024-03-02T11:43:00;94795.47;;;11.23;72.96
11124;BME280;5616;42.692;23.312;2024-03-02T11:45:26;94790.91;;;11.25;72.72
11124;BME280;5616;42.692;23.312;2024-03-02T11:47:57;94799.16;;;11.27;72.35
11124;BME280;5616;42.692;23.312;2024-03-02T11:50:30;94799.97;;;11.27;73.22
11124;BME280;5616;42.692;23.312;2024-03-02T11:52:58;94799.63;;;11.24;72.97
11124;BME280;5616;42.692;23.312;2024-03-02T11:55:25;94793.94;;;11.22;70.66
11124;BME280;5616;42.692;23.312;2024-03-02T11:57:52;94796.91;;;11.19;71.41
11124;BME280;5616;42.692;23.312;2024-03-02T12:00:19;94795.94;;;11.20;71.04
11124;BME280;5616;42.692;23.312;2024-03-02T12:02:46;94790.56;;;11.21;71.67
11124;BME280;5616;42.692;23.312;2024-03-02T12:05:16;94795.59;;;11.28;71.02
11124;BME280;5616;42.692;23.312;2024-03-02T12:07:42;94795.03;;;11.26;70.14
11124;BME280;5616;42.692;23.312;2024-03-02T12:10:08;94792.03;;;11.29;70.35
11124;BME280;5616;42.692;23.312;2024-03-02T12:12:34;94796.72;;;11.32;69.29
11124;BME280;5616;42.692;23.312;2024-03-02T12:14:59;94796.72;;;11.32;70.57
11124;BME280;5616;42.692;23.312;2024-03-02T12:17:25;94793.56;;;11.30;71.40
11124;BME280;5616;42.692;23.312;2024-03-02T12:19:51;94793.69;;;11.23;71.47
11124;BME280;5616;42.692;23.312;2024-03-02T12:22:18;94795.03;;;11.26;70.28
11124;BME280;5616;42.692;23.312;2024-03-02T12:24:44;94795.13;;;11.31;70.24
11124;BME280;5616;42.692;23.312;2024-03-02T12:27:14;94795.25;;;11.36;70.74
11124;BME280;5616;42.692;23.312;2024-03-02T12:29:40;94802.53;;;11.39;69.62
11124;BME280;5616;42.692;23.312;2024-03-02T12:32:06;94789.66;;;11.39;70.11
11124;BME280;5616;42.692;23.312;2024-03-02T12:34:32;94786.75;;;11.36;70.45
11124;BME280;5616;42.692;23.312;2024-03-02T12:36:58;94792.44;;;11.26;69.78
11124;BME280;5616;42.692;23.312;2024-03-02T12:39:23;94792.34;;;11.21;70.35
11124;BME280;5616;42.692;23.312;2024-03-02T12:41:50;94796.03;;;11.25;70.96
11124;BME280;5616;42.692;23.312;2024-03-02T12:44:16;94790.91;;;11.25;69.98
11124;BME280;5616;42.692;23.312;2024-03-02T12:46:41;94790.00;;;11.31;70.38
11124;BME280;5616;42.692;23.312;2024-03-02T12:49:09;94799.06;;;11.33;69.52
11124;BME280;5616;42.692;23.312;2024-03-02T12:51:40;94795.47;;;11.35;69.97
11124;BME280;5616;42.692;23.312;2024-03-02T12:54:14;94791.56;;;11.32;70.07
11124;BME280;5616;42.692;23.312;2024-03-02T12:56:41;94794.22;;;11.37;68.80
11124;BME280;5616;42.692;23.312;2024-03-02T12:59:24;94796.38;;;11.40;69.70
11124;BME280;5616;42.692;23.312;2024-03-02T13:01:55;94801.63;;;11.45;68.44
11124;BME280;5616;42.692;23.312;2024-03-02T13:04:26;94807.22;;;11.42;68.29
11124;BME280;5616;42.692;23.312;2024-03-02T13:06:54;94795.34;;;11.41;68.57
11124;BME280;5616;42.692;23.312;2024-03-02T13:09:23;94800.50;;;11.41;69.79
11124;BME280;5616;42.692;23.312;2024-03-02T13:11:49;94803.00;;;11.36;70.15